Alden, New York
Current Conditions -  °F | °C
As of 3:59 PM on Thursday 20 Nov 2014 (Local Time) from KBUF Reporting Station
Broken Clouds Broken Clouds  
Wind Chill: 16°   Ceiling: 5500
Heat Index: 27°   Visibility: 10mi
Dew Point: 10°   Wind: 13mph
Humidity: 49%   Direction: 270°W
Pressure: 29.85"   Gusts: NA
Location:  42.9°N, 78.49°W
Report Text: KBUF 202059Z 27011KT 10SM FEW005 FEW025 BKN055 M03/M12 A2985 RMK AO2 CB DSNT N NE MOV E MDT CU DSNT NW-NE SHSN VC SE-SW AND DSNT NE-SE T10281122
Loading
Personal Weather Stations






























Interactive Weather Map New forecast layout! Learn more

10-Day Weather Forecast

Advertisements
Track Severe Weather on mobile